Time;durP1;ratioP1;P1;durP2;ratioP2;P2;SDS_P1;SDS_P2;PMS_P1;PMS_P2;Temp;Humidity;BMP_temperature;BMP_pressure;BME280_temperature;BME280_humidity;BME280_pressure;Samples;Min_cycle;Max_cycle;Signal;HPM_P1;HPM_P2
2022/01/09 00:00:23;;;;;;;3.47;1.85;;;3.30;99.90;;;;;;5118281;28;20032;-65
2022/01/09 00:02:49;;;;;;;4.20;1.88;;;3.20;99.90;;;;;;5119878;27;20036;-65
2022/01/09 00:05:15;;;;;;;4.55;2.35;;;3.30;99.90;;;;;;5117862;28;20024;-67
2022/01/09 00:07:41;;;;;;;3.28;1.88;;;3.30;99.90;;;;;;5120680;28;20038;-66
2022/01/09 00:10:08;;;;;;;3.95;1.63;;;3.30;99.90;;;;;;5120344;27;20024;-67
2022/01/09 00:12:34;;;;;;;3.85;1.95;;;3.30;99.90;;;;;;5117628;28;20031;-66
2022/01/09 00:15:00;;;;;;;3.40;1.77;;;3.40;99.90;;;;;;5119014;27;20065;-65
2022/01/09 00:17:25;;;;;;;4.22;2.05;;;3.20;99.90;;;;;;5117786;28;20028;-68
2022/01/09 00:19:51;;;;;;;2.85;1.90;;;3.30;99.90;;;;;;5118512;28;20474;-67
2022/01/09 00:22:20;;;;;;;5.72;2.40;;;3.40;99.90;;;;;;5119240;28;20104;-68
2022/01/09 00:24:46;;;;;;;3.47;2.03;;;3.30;99.90;;;;;;5121892;28;20046;-67
2022/01/09 00:27:12;;;;;;;3.42;2.17;;;3.30;99.90;;;;;;5118179;28;20028;-65
2022/01/09 00:29:37;;;;;;;3.55;2.38;;;3.30;99.90;;;;;;5118812;28;20032;-65
2022/01/09 00:32:03;;;;;;;5.28;2.17;;;3.40;99.90;;;;;;5117781;28;20028;-65
2022/01/09 00:34:29;;;;;;;3.75;2.03;;;3.40;99.90;;;;;;5117565;28;20085;-67
2022/01/09 00:36:54;;;;;;;2.97;2.30;;;3.30;99.90;;;;;;5119567;28;20457;-64
2022/01/09 00:39:21;;;;;;;3.30;1.30;;;3.40;99.90;;;;;;5117218;28;20023;-65
2022/01/09 00:41:47;;;;;;;4.15;2.20;;;3.30;99.90;;;;;;5116004;28;20027;-65
2022/01/09 00:44:12;;;;;;;3.80;2.38;;;3.40;99.90;;;;;;5115156;28;20030;-66
2022/01/09 00:46:38;;;;;;;6.10;3.60;;;3.40;99.90;;;;;;5116531;28;20038;-67
2022/01/09 00:49:04;;;;;;;3.72;1.90;;;3.50;99.90;;;;;;5117004;28;20031;-67
2022/01/09 00:51:31;;;;;;;3.78;1.90;;;3.40;99.90;;;;;;5114628;28;20019;-67
2022/01/09 00:53:57;;;;;;;7.15;2.15;;;3.30;99.90;;;;;;5114332;28;20156;-66
2022/01/09 00:56:23;;;;;;;6.78;2.25;;;3.40;99.90;;;;;;5115565;28;20039;-67
2022/01/09 00:58:48;;;;;;;3.03;2.15;;;3.70;99.90;;;;;;5114793;28;20023;-65
2022/01/09 01:01:14;;;;;;;6.13;2.90;;;3.60;99.90;;;;;;5116104;28;20074;-66
2022/01/09 01:03:39;;;;;;;3.17;1.67;;;3.60;99.90;;;;;;5115410;28;20054;-66
2022/01/09 01:06:05;;;;;;;4.00;1.70;;;3.60;99.90;;;;;;5114670;28;20114;-67
2022/01/09 01:08:31;;;;;;;4.50;1.95;;;3.60;99.90;;;;;;5113842;28;20448;-66
2022/01/09 01:10:57;;;;;;;2.88;1.30;;;3.70;99.90;;;;;;5115565;28;20372;-65
2022/01/09 01:13:23;;;;;;;3.75;1.60;;;3.70;99.90;;;;;;5113474;28;20027;-65
2022/01/09 01:15:48;;;;;;;2.00;1.52;;;3.80;99.90;;;;;;5115364;28;20081;-65
2022/01/09 01:18:14;;;;;;;3.13;1.20;;;3.90;99.90;;;;;;5114411;28;20536;-65
2022/01/09 01:20:41;;;;;;;3.45;2.20;;;3.80;99.90;;;;;;5115101;28;20050;-69
2022/01/09 01:23:07;;;;;;;6.20;1.88;;;3.80;99.90;;;;;;5116367;28;20024;-65
2022/01/09 01:25:34;;;;;;;2.95;1.60;;;3.80;99.90;;;;;;5114687;28;20081;-66
2022/01/09 01:28:00;;;;;;;3.72;1.42;;;3.80;99.90;;;;;;5113835;28;20028;-66
2022/01/09 01:30:26;;;;;;;2.90;1.10;;;3.80;99.90;;;;;;5096266;28;20077;-67
2022/01/09 01:32:52;;;;;;;2.55;1.40;;;3.80;99.90;;;;;;5113731;28;20024;-67
2022/01/09 01:35:17;;;;;;;2.10;1.38;;;3.80;99.90;;;;;;5113538;28;20019;-65
2022/01/09 01:37:43;;;;;;;2.58;2.28;;;3.90;99.90;;;;;;5113043;28;20027;-65
2022/01/09 01:40:14;;;;;;;2.90;2.03;;;3.90;99.90;;;;;;5114951;27;20061;-65
2022/01/09 01:42:40;;;;;;;3.45;1.92;;;3.90;99.90;;;;;;5114377;28;20020;-66
2022/01/09 01:45:06;;;;;;;2.55;1.55;;;4.00;99.90;;;;;;5114383;28;20028;-67
2022/01/09 01:47:32;;;;;;;2.72;1.88;;;3.90;99.90;;;;;;5114070;28;20164;-67
2022/01/09 01:49:58;;;;;;;2.10;1.65;;;3.90;99.90;;;;;;5114351;28;20491;-66
2022/01/09 01:52:34;;;;;;;1.77;1.40;;;3.90;99.90;;;;;;5112720;28;20047;-67
2022/01/09 01:55:00;;;;;;;2.15;1.63;;;3.90;99.90;;;;;;5113586;28;20104;-67
2022/01/09 01:57:26;;;;;;;2.70;1.73;;;3.90;99.90;;;;;;5113867;28;20496;-66
2022/01/09 01:59:54;;;;;;;1.73;1.45;;;3.80;99.90;;;;;;5112666;28;20058;-68
2022/01/09 02:02:20;;;;;;;3.78;1.60;;;3.90;99.90;;;;;;5113895;28;20030;-70
2022/01/09 02:04:46;;;;;;;3.72;1.77;;;3.80;99.90;;;;;;5115288;28;20028;-67
2022/01/09 02:07:12;;;;;;;2.15;1.42;;;3.80;99.90;;;;;;5114465;28;20129;-69
2022/01/09 02:09:37;;;;;;;2.63;1.85;;;3.80;99.90;;;;;;5127891;27;20028;-62
2022/01/09 02:12:05;;;;;;;2.65;1.70;;;3.90;99.90;;;;;;5136022;27;20510;-66
2022/01/09 02:14:34;;;;;;;2.42;1.45;;;3.90;99.90;;;;;;5136184;27;20027;-65
2022/01/09 02:17:00;;;;;;;1.55;1.15;;;3.90;99.90;;;;;;5136700;27;20052;-67
2022/01/09 02:19:27;;;;;;;3.45;1.30;;;4.00;99.90;;;;;;5135803;27;20027;-66
2022/01/09 02:21:54;;;;;;;1.77;1.42;;;4.00;99.90;;;;;;5136439;27;20039;-69
2022/01/09 02:24:23;;;;;;;1.98;1.33;;;4.10;99.90;;;;;;5136442;27;20028;-67
2022/01/09 02:26:50;;;;;;;1.63;0.98;;;4.10;99.90;;;;;;5134039;27;20027;-68
2022/01/09 02:29:16;;;;;;;1.27;0.98;;;4.10;99.90;;;;;;5135177;27;20023;-65
2022/01/09 02:31:42;;;;;;;2.20;1.13;;;4.30;99.90;;;;;;5136434;27;20032;-65
2022/01/09 02:34:09;;;;;;;2.00;1.15;;;4.30;99.90;;;;;;5136058;27;20353;-65
2022/01/09 02:36:38;;;;;;;4.25;1.73;;;4.40;99.90;;;;;;5134984;27;20038;-65
2022/01/09 02:39:04;;;;;;;2.00;1.17;;;4.40;99.90;;;;;;5135256;27;20097;-68
2022/01/09 02:41:29;;;;;;;2.83;1.48;;;4.30;99.90;;;;;;5134049;27;20470;-64
2022/01/09 02:43:55;;;;;;;2.25;1.42;;;4.40;99.90;;;;;;5134115;27;20046;-69
2022/01/09 02:48:51;;;;;;;3.97;1.25;;;4.70;99.90;;;;;;5135429;27;20035;-65
2022/01/09 02:51:18;;;;;;;1.35;1.10;;;4.70;99.90;;;;;;5134844;27;20216;-65
2022/01/09 02:53:47;;;;;;;1.45;1.10;;;4.80;99.90;;;;;;5133663;27;20039;-66
2022/01/09 02:56:13;;;;;;;1.83;1.50;;;4.90;99.90;;;;;;5133632;27;20062;-68
2022/01/09 02:58:39;;;;;;;1.88;0.77;;;5.00;99.90;;;;;;5132376;27;20058;-65
2022/01/09 03:01:07;;;;;;;2.35;1.13;;;4.90;99.90;;;;;;5135230;27;20046;-70
2022/01/09 03:03:34;;;;;;;0.80;0.65;;;5.00;99.90;;;;;;5134980;27;20016;-65
2022/01/09 03:06:00;;;;;;;0.57;0.57;;;5.10;99.90;;;;;;5134795;27;20123;-65
2022/01/09 03:08:26;;;;;;;3.05;0.90;;;5.10;99.90;;;;;;5133750;27;20118;-68
2022/01/09 03:10:51;;;;;;;1.90;1.00;;;5.10;99.90;;;;;;5134569;27;20054;-66
2022/01/09 03:13:17;;;;;;;4.15;1.38;;;5.10;99.90;;;;;;5133402;27;20034;-65
2022/01/09 03:15:43;;;;;;;3.30;1.30;;;5.10;99.90;;;;;;5132445;27;20076;-66
2022/01/09 03:18:09;;;;;;;1.50;1.15;;;5.20;99.90;;;;;;5134473;27;20058;-67
2022/01/09 03:20:34;;;;;;;1.48;1.20;;;5.20;99.90;;;;;;5134090;27;20164;-65
2022/01/09 03:23:00;;;;;;;1.50;1.20;;;5.20;99.90;;;;;;5135022;27;20054;-65
2022/01/09 03:25:26;;;;;;;1.70;0.95;;;5.10;99.90;;;;;;5135135;27;20117;-65
2022/01/09 03:27:54;;;;;;;2.08;1.30;;;5.20;99.90;;;;;;5135222;28;20106;-67
2022/01/09 03:30:21;;;;;;;2.75;1.23;;;5.20;99.90;;;;;;5134467;28;20479;-65
2022/01/09 03:32:48;;;;;;;1.73;1.08;;;5.20;99.90;;;;;;5135547;27;20839;-68
2022/01/09 03:35:16;;;;;;;1.23;1.10;;;5.30;99.90;;;;;;5135566;28;20031;-66
2022/01/09 03:37:44;;;;;;;1.45;1.05;;;5.30;99.90;;;;;;5136093;27;20080;-70
2022/01/09 03:40:13;;;;;;;1.42;0.90;;;5.40;99.90;;;;;;5135393;28;20031;-67
2022/01/09 03:42:39;;;;;;;1.10;0.95;;;5.30;99.90;;;;;;5134829;27;20024;-67
2022/01/09 03:45:06;;;;;;;1.00;0.70;;;5.30;99.90;;;;;;5132446;28;20030;-69
2022/01/09 03:47:32;;;;;;;2.10;1.23;;;5.30;99.90;;;;;;5132962;27;20028;-67
2022/01/09 03:49:58;;;;;;;0.95;0.60;;;5.30;99.90;;;;;;5133386;27;20038;-66
2022/01/09 03:52:27;;;;;;;0.20;0.20;;;5.40;99.90;;;;;;5131732;28;20488;-66
2022/01/09 03:54:54;;;;;;;1.02;0.40;;;5.30;99.90;;;;;;5115231;28;20034;-65
2022/01/09 03:57:20;;;;;;;0.93;0.40;;;5.30;99.90;;;;;;5132117;28;20152;-65
2022/01/09 03:59:45;;;;;;;0.20;0.20;;;5.30;99.90;;;;;;5132789;28;20445;-65
2022/01/09 04:02:11;;;;;;;0.65;0.38;;;5.20;99.90;;;;;;5133212;28;20027;-65
2022/01/09 04:04:37;;;;;;;0.20;0.20;;;5.20;99.90;;;;;;5132995;27;20448;-68
2022/01/09 04:07:03;;;;;;;0.10;0.08;;;5.10;99.90;;;;;;5132371;28;20460;-65
2022/01/09 04:09:38;;;;;;;0.25;0.20;;;5.10;99.90;;;;;;5131959;28;20123;-69
2022/01/09 04:12:31;;;;;;;0.85;0.30;;;5.20;99.90;;;;;;5134704;28;20058;-67
2022/01/09 04:14:56;;;;;;;0.28;0.17;;;5.20;99.90;;;;;;5136541;27;20027;-65
2022/01/09 04:17:39;;;;;;;0.40;0.10;;;5.10;99.90;;;;;;5138331;27;20027;-67
2022/01/09 04:20:07;;;;;;;0.90;0.30;;;5.10;99.90;;;;;;5137955;27;20121;-65
2022/01/09 04:22:33;;;;;;;0.82;0.20;;;5.10;99.90;;;;;;5137190;27;20055;-67
2022/01/09 04:24:58;;;;;;;0.73;0.50;;;5.10;99.90;;;;;;5137325;27;20042;-67
2022/01/09 04:27:24;;;;;;;0.52;0.30;;;5.10;99.90;;;;;;5135391;27;20087;-64
2022/01/09 04:29:50;;;;;;;0.40;0.20;;;5.00;99.90;;;;;;5134930;27;20752;-65
2022/01/09 04:32:15;;;;;;;0.65;0.20;;;5.00;99.90;;;;;;5136725;27;20449;-65
2022/01/09 04:34:41;;;;;;;0.38;0.30;;;5.00;99.90;;;;;;5136412;27;20042;-64
2022/01/09 04:37:07;;;;;;;1.75;0.22;;;4.90;99.90;;;;;;5136624;27;20110;-65
2022/01/09 04:39:32;;;;;;;0.60;0.38;;;4.90;99.90;;;;;;5137159;27;20477;-67
2022/01/09 04:41:58;;;;;;;0.60;0.38;;;4.90;99.90;;;;;;5136337;27;20469;-66
2022/01/09 04:44:24;;;;;;;1.45;0.13;;;5.00;99.90;;;;;;5135329;27;20019;-66
2022/01/09 04:47:04;;;;;;;0.65;0.30;;;4.90;99.90;;;;;;5136043;27;20023;-67
2022/01/09 04:49:36;;;;;;;0.40;0.20;;;4.90;99.90;;;;;;5135180;27;20031;-65
2022/01/09 04:52:04;;;;;;;0.90;0.00;;;4.90;99.90;;;;;;5135473;27;20449;-65
2022/01/09 04:54:30;;;;;;;1.00;0.20;;;4.80;99.90;;;;;;5135094;27;20426;-66
2022/01/09 04:56:56;;;;;;;1.70;0.17;;;4.90;99.90;;;;;;5134464;27;20046;-64
2022/01/09 04:59:22;;;;;;;0.70;0.15;;;4.90;99.90;;;;;;5136515;27;20114;-66
2022/01/09 05:01:47;;;;;;;0.38;0.38;;;4.80;99.90;;;;;;5134175;27;20499;-65
2022/01/09 05:04:13;;;;;;;0.40;0.20;;;4.90;99.90;;;;;;5135986;27;20023;-65
2022/01/09 05:06:38;;;;;;;1.85;0.17;;;4.90;99.90;;;;;;5135908;27;20025;-65
2022/01/09 05:09:04;;;;;;;0.10;0.03;;;4.90;99.90;;;;;;5136751;27;20035;-65
2022/01/09 05:11:30;;;;;;;0.22;0.00;;;4.90;99.90;;;;;;5134665;27;20025;-65
2022/01/09 05:13:55;;;;;;;0.10;0.00;;;5.00;99.90;;;;;;5135340;27;20023;-67
2022/01/09 05:16:21;;;;;;;0.32;0.00;;;5.00;99.90;;;;;;5135477;27;20031;-65
2022/01/09 05:18:58;;;;;;;0.90;0.00;;;4.90;99.90;;;;;;5135207;27;20030;-67
2022/01/09 05:21:24;;;;;;;0.47;0.10;;;5.00;99.90;;;;;;5136819;27;20051;-65
2022/01/09 05:23:49;;;;;;;0.05;0.00;;;4.90;99.90;;;;;;5134038;27;20031;-65
2022/01/09 05:26:15;;;;;;;0.00;0.00;;;4.90;99.90;;;;;;5134943;27;20040;-66
2022/01/09 05:28:41;;;;;;;0.43;0.10;;;4.90;99.90;;;;;;5134649;27;20031;-66
2022/01/09 05:31:07;;;;;;;0.00;0.00;;;4.80;99.90;;;;;;5135443;27;20031;-65
2022/01/09 05:33:33;;;;;;;0.08;0.00;;;4.80;99.90;;;;;;5135468;27;20031;-64
2022/01/09 05:35:58;;;;;;;0.10;0.00;;;4.80;99.90;;;;;;5133354;27;20079;-64
2022/01/09 05:38:24;;;;;;;0.10;0.00;;;4.80;99.90;;;;;;5133950;27;20031;-64
2022/01/09 05:40:50;;;;;;;0.30;0.10;;;4.70;99.90;;;;;;5133178;27;20034;-64
2022/01/09 05:43:15;;;;;;;0.20;0.17;;;4.80;99.90;;;;;;5135264;27;20030;-64
2022/01/09 05:45:41;;;;;;;0.30;0.03;;;4.70;99.90;;;;;;5134706;27;20376;-65
2022/01/09 05:48:07;;;;;;;0.57;0.00;;;4.80;99.90;;;;;;5133451;27;20031;-64
2022/01/09 05:50:34;;;;;;;1.75;0.20;;;4.70;99.90;;;;;;5135137;27;20066;-65
2022/01/09 05:52:59;;;;;;;0.98;0.10;;;4.70;99.90;;;;;;5133397;27;20046;-64
2022/01/09 05:55:25;;;;;;;0.43;0.10;;;4.70;99.90;;;;;;5135095;27;20544;-64
2022/01/09 05:57:51;;;;;;;0.82;0.10;;;4.80;99.90;;;;;;5133985;27;20023;-64
2022/01/09 06:00:17;;;;;;;0.43;0.10;;;4.80;99.90;;;;;;5134618;27;20393;-65
2022/01/09 06:02:43;;;;;;;0.20;0.00;;;4.90;99.90;;;;;;5134806;27;20035;-65
2022/01/09 06:05:08;;;;;;;0.05;0.00;;;4.80;99.90;;;;;;5134596;27;20025;-64
2022/01/09 06:07:41;;;;;;;0.30;0.10;;;4.70;99.90;;;;;;5134230;27;20027;-64
2022/01/09 06:10:08;;;;;;;0.10;0.00;;;4.70;99.90;;;;;;5135115;27;20094;-64
2022/01/09 06:12:34;;;;;;;0.30;0.17;;;4.70;99.90;;;;;;5134739;27;20056;-64
2022/01/09 06:14:59;;;;;;;1.95;0.43;;;4.70;99.90;;;;;;5134803;27;20031;-64
2022/01/09 06:17:25;;;;;;;1.50;0.10;;;4.70;99.90;;;;;;5136240;27;20024;-65
2022/01/09 06:19:51;;;;;;;0.10;0.10;;;4.70;99.90;;;;;;5137091;27;20027;-66
2022/01/09 06:22:18;;;;;;;0.63;0.10;;;4.70;99.90;;;;;;5138036;27;20045;-65
2022/01/09 06:24:53;;;;;;;0.75;0.30;;;4.70;99.90;;;;;;5135549;27;20035;-65
2022/01/09 06:27:18;;;;;;;0.30;0.10;;;4.70;99.90;;;;;;5135359;27;20030;-66
2022/01/09 06:29:44;;;;;;;2.58;0.30;;;4.70;99.90;;;;;;5135264;27;20035;-68
2022/01/09 06:32:10;;;;;;;0.63;0.25;;;4.80;99.90;;;;;;5135879;27;20041;-70
2022/01/09 06:34:36;;;;;;;1.08;0.30;;;4.80;99.90;;;;;;5133154;27;20019;-65
2022/01/09 06:37:02;;;;;;;0.95;0.20;;;5.00;99.90;;;;;;5133545;27;20445;-65
2022/01/09 06:39:28;;;;;;;3.22;0.40;;;4.80;99.90;;;;;;5132960;27;20027;-66
2022/01/09 06:41:54;;;;;;;2.97;0.80;;;4.80;99.90;;;;;;5135314;27;20458;-66
2022/01/09 06:44:19;;;;;;;1.48;0.40;;;4.80;99.90;;;;;;5133693;27;20422;-65
2022/01/09 06:46:45;;;;;;;2.53;0.43;;;4.80;99.90;;;;;;5134320;27;20065;-65
2022/01/09 06:49:11;;;;;;;1.73;0.70;;;4.80;99.90;;;;;;5135813;27;20038;-65
2022/01/09 06:51:39;;;;;;;3.60;0.43;;;4.90;99.90;;;;;;5135406;27;20027;-65
2022/01/09 06:54:05;;;;;;;2.17;0.90;;;4.90;99.90;;;;;;5135306;27;20428;-67
2022/01/09 06:56:31;;;;;;;7.13;0.90;;;5.00;99.90;;;;;;5133280;27;20054;-65
2022/01/09 06:58:56;;;;;;;2.63;0.70;;;5.00;99.90;;;;;;5132815;27;20469;-65
2022/01/09 07:01:22;;;;;;;2.58;0.88;;;5.00;99.90;;;;;;5133674;27;20035;-66
2022/01/09 07:03:48;;;;;;;4.38;1.20;;;5.00;99.90;;;;;;5131745;27;20030;-65
2022/01/09 07:06:13;;;;;;;2.10;0.77;;;5.00;99.90;;;;;;5132413;27;20031;-65
2022/01/09 07:08:39;;;;;;;4.57;0.85;;;5.10;99.90;;;;;;5134402;27;20019;-65
2022/01/09 07:11:05;;;;;;;1.48;0.57;;;5.00;99.90;;;;;;5133622;27;20452;-65
2022/01/09 07:13:32;;;;;;;4.18;0.70;;;4.90;99.90;;;;;;5133426;27;20027;-65
2022/01/09 07:15:58;;;;;;;3.83;0.60;;;4.90;99.90;;;;;;5133203;27;20031;-69
2022/01/09 07:18:24;;;;;;;2.85;0.80;;;4.90;99.90;;;;;;5133653;27;20031;-65
2022/01/09 07:20:50;;;;;;;1.83;0.60;;;5.00;99.90;;;;;;5131404;27;20031;-65
2022/01/09 07:23:16;;;;;;;2.30;0.70;;;5.00;99.90;;;;;;5133143;27;20027;-65
2022/01/09 07:25:42;;;;;;;2.28;0.60;;;5.00;99.90;;;;;;5131268;27;20024;-64
2022/01/09 07:28:08;;;;;;;3.97;1.10;;;5.00;99.90;;;;;;5132142;28;20023;-64
2022/01/09 07:30:34;;;;;;;4.53;1.08;;;5.10;99.90;;;;;;5133114;27;20050;-66
2022/01/09 07:32:59;;;;;;;2.55;0.70;;;5.10;99.90;;;;;;5132833;27;20136;-65
2022/01/09 07:35:25;;;;;;;3.47;0.75;;;5.00;99.90;;;;;;5133417;28;20019;-65
2022/01/09 07:37:51;;;;;;;4.63;1.23;;;5.10;99.90;;;;;;5132801;27;20498;-65
2022/01/09 07:40:17;;;;;;;2.92;0.95;;;5.10;99.90;;;;;;5132015;28;20034;-65
2022/01/09 07:42:46;;;;;;;3.85;1.38;;;5.10;99.90;;;;;;5131337;28;20024;-65
2022/01/09 07:45:12;;;;;;;1.65;0.85;;;5.10;99.90;;;;;;5131900;28;20448;-65
2022/01/09 07:47:37;;;;;;;4.25;1.30;;;5.10;99.90;;;;;;5133540;27;20048;-64
2022/01/09 07:50:04;;;;;;;7.70;1.40;;;5.10;99.90;;;;;;5135350;27;20043;-63
2022/01/09 07:52:34;;;;;;;3.33;1.23;;;5.10;99.90;;;;;;5137322;27;20099;-65
2022/01/09 07:55:00;;;;;;;8.35;1.45;;;5.10;99.90;;;;;;5136710;27;20382;-65
2022/01/09 07:57:25;;;;;;;10.15;2.40;;;5.10;99.90;;;;;;5137259;27;20027;-65
2022/01/09 07:59:51;;;;;;;6.80;1.33;;;5.10;99.90;;;;;;5117903;27;20023;-65
2022/01/09 08:02:16;;;;;;;8.95;2.72;;;5.20;99.90;;;;;;5135895;27;20076;-66
2022/01/09 08:04:43;;;;;;;8.27;3.75;;;5.20;99.90;;;;;;5137128;27;20029;-65
2022/01/09 08:07:08;;;;;;;5.55;1.67;;;5.20;99.90;;;;;;5137092;27;20341;-65
2022/01/09 08:09:34;;;;;;;8.25;1.75;;;5.30;99.90;;;;;;5137615;27;20095;-68
2022/01/09 08:11:59;;;;;;;6.30;2.08;;;5.20;99.90;;;;;;5136961;27;20027;-65
2022/01/09 08:14:25;;;;;;;3.90;1.40;;;5.20;99.90;;;;;;5136482;27;20035;-65
2022/01/09 08:16:51;;;;;;;7.03;1.65;;;5.10;99.90;;;;;;5136273;27;20449;-63
2022/01/09 08:19:16;;;;;;;5.10;2.00;;;5.20;99.90;;;;;;5135342;27;20026;-65
2022/01/09 08:21:42;;;;;;;6.50;1.63;;;5.10;99.90;;;;;;5136895;27;20091;-64
2022/01/09 08:24:08;;;;;;;6.53;1.77;;;5.10;99.90;;;;;;5136003;27;20110;-65
2022/01/09 08:26:33;;;;;;;7.38;1.92;;;5.20;99.90;;;;;;5137452;27;20438;-66
2022/01/09 08:28:59;;;;;;;7.38;1.92;;;5.10;99.90;;;;;;5136512;27;20097;-65
2022/01/09 08:31:24;;;;;;;7.60;2.83;;;5.30;99.90;;;;;;5136531;27;20074;-67
2022/01/09 08:33:50;;;;;;;8.20;1.20;;;5.20;99.90;;;;;;5137064;27;20019;-67
2022/01/09 08:36:16;;;;;;;11.30;2.67;;;5.10;99.90;;;;;;5136873;27;20027;-66
2022/01/09 08:38:42;;;;;;;6.38;1.70;;;5.10;99.90;;;;;;5136594;27;20079;-66
2022/01/09 08:41:08;;;;;;;10.02;2.70;;;5.10;99.90;;;;;;5134603;27;20034;-64
2022/01/09 08:43:37;;;;;;;6.68;1.75;;;5.20;99.90;;;;;;5136480;27;20023;-67
2022/01/09 08:46:03;;;;;;;8.70;1.85;;;5.20;99.90;;;;;;5135527;27;20023;-65
2022/01/09 08:48:32;;;;;;;8.10;2.17;;;5.20;99.90;;;;;;5136108;27;20334;-65
2022/01/09 08:50:57;;;;;;;6.15;2.10;;;5.10;99.90;;;;;;5135377;27;20023;-64
2022/01/09 08:53:23;;;;;;;10.27;2.47;;;5.20;99.90;;;;;;5134912;27;20376;-64
2022/01/09 08:55:49;;;;;;;9.57;2.40;;;5.20;99.90;;;;;;5135688;27;20445;-64
2022/01/09 08:58:14;;;;;;;7.47;2.20;;;5.20;99.90;;;;;;5136405;27;20030;-65
2022/01/09 09:00:40;;;;;;;6.22;1.90;;;5.20;99.90;;;;;;5135194;27;20022;-65
2022/01/09 09:03:06;;;;;;;5.03;1.75;;;5.00;99.90;;;;;;5134463;27;20326;-66
2022/01/09 09:05:32;;;;;;;7.28;1.88;;;5.00;99.90;;;;;;5134868;27;20023;-64
2022/01/09 09:07:58;;;;;;;12.48;2.88;;;5.10;99.90;;;;;;5133919;27;20366;-64
2022/01/09 09:10:24;;;;;;;10.60;2.45;;;5.10;99.90;;;;;;5137627;27;20530;-65
2022/01/09 09:12:50;;;;;;;9.60;2.25;;;5.20;99.90;;;;;;5136912;27;20023;-67
2022/01/09 09:15:19;;;;;;;8.80;1.90;;;5.20;99.90;;;;;;5135547;27;20356;-69
2022/01/09 09:17:45;;;;;;;7.53;1.73;;;5.20;99.90;;;;;;5136432;27;20027;-65
2022/01/09 09:20:11;;;;;;;6.05;2.22;;;5.30;99.90;;;;;;5134960;27;20030;-65
2022/01/09 09:22:38;;;;;;;8.50;2.33;;;5.20;99.90;;;;;;5117535;27;20122;-65
2022/01/09 09:25:04;;;;;;;6.78;3.55;;;5.30;99.90;;;;;;5133245;27;20042;-66
2022/01/09 09:27:30;;;;;;;5.53;2.53;;;5.90;99.90;;;;;;5125397;27;20028;-67
2022/01/09 09:30:04;;;;;;;11.80;3.22;;;5.70;99.90;;;;;;5127827;27;20031;-65
2022/01/09 09:32:30;;;;;;;8.27;1.73;;;5.60;99.90;;;;;;5126771;27;20400;-66
2022/01/09 09:34:56;;;;;;;8.88;4.07;;;5.50;99.90;;;;;;5119846;27;20489;-65
2022/01/09 09:37:22;;;;;;;4.53;1.35;;;5.50;99.90;;;;;;5114854;28;20031;-66
2022/01/09 09:39:51;;;;;;;11.70;1.88;;;5.50;99.90;;;;;;5115051;28;20019;-66
2022/01/09 09:42:17;;;;;;;3.90;1.38;;;5.50;99.90;;;;;;5114604;28;20031;-69
2022/01/09 09:44:43;;;;;;;7.40;2.10;;;5.50;99.90;;;;;;5120287;27;20035;-68
2022/01/09 09:47:10;;;;;;;5.85;1.10;;;5.40;99.90;;;;;;5134298;27;20052;-71
2022/01/09 09:49:35;;;;;;;4.72;1.63;;;5.50;99.90;;;;;;5135096;27;20042;-66
2022/01/09 09:52:01;;;;;;;10.13;2.55;;;5.60;99.90;;;;;;5131727;27;20024;-65
2022/01/09 09:54:27;;;;;;;7.35;2.05;;;5.60;99.90;;;;;;5121943;27;20020;-65
2022/01/09 09:56:52;;;;;;;3.97;1.42;;;5.80;99.90;;;;;;5117368;27;20031;-65
2022/01/09 09:59:27;;;;;;;3.67;1.20;;;5.70;99.90;;;;;;5124194;27;20041;-66
2022/01/09 10:01:54;;;;;;;9.07;1.45;;;5.70;99.90;;;;;;5122552;27;20242;-66
2022/01/09 10:04:20;;;;;;;4.55;1.38;;;5.70;99.90;;;;;;5125887;27;20024;-66
2022/01/09 10:06:49;;;;;;;7.80;1.80;;;5.70;99.90;;;;;;5117252;27;20035;-64
2022/01/09 10:09:20;;;;;;;7.40;2.15;;;5.70;99.90;;;;;;5113686;28;20031;-65
2022/01/09 10:11:53;;;;;;;5.88;2.33;;;5.80;99.90;;;;;;5113536;28;20023;-66
2022/01/09 10:14:27;;;;;;;9.82;2.40;;;5.70;99.90;;;;;;5128949;27;20448;-65
2022/01/09 10:17:13;;;;;;;3.95;1.45;;;5.90;99.90;;;;;;5133555;27;20031;-65
2022/01/09 10:19:42;;;;;;;6.53;1.70;;;6.00;99.90;;;;;;5134212;27;20027;-65
2022/01/09 10:22:34;;;;;;;7.68;1.58;;;6.10;99.90;;;;;;5132059;27;20499;-65
2022/01/09 10:25:27;;;;;;;5.05;1.70;;;6.10;99.90;;;;;;5126567;27;20498;-66
2022/01/09 10:27:59;;;;;;;4.85;1.75;;;6.00;99.90;;;;;;5111374;28;20488;-65
2022/01/09 10:30:32;;;;;;;4.70;1.67;;;6.10;99.90;;;;;;5118107;27;20233;-67
2022/01/09 10:33:06;;;;;;;6.88;2.60;;;6.10;99.90;;;;;;5115333;27;20031;-65
2022/01/09 10:35:32;;;;;;;5.10;1.98;;;6.30;99.90;;;;;;5130151;27;20119;-66
2022/01/09 10:38:13;;;;;;;6.10;1.85;;;6.40;99.90;;;;;;5111869;27;20114;-66
2022/01/09 10:40:42;;;;;;;9.27;2.05;;;6.50;99.90;;;;;;5113325;28;20476;-65
2022/01/09 10:43:07;;;;;;;7.18;1.67;;;6.60;99.90;;;;;;5112952;27;20067;-66
2022/01/09 10:45:36;;;;;;;4.60;2.03;;;6.60;99.90;;;;;;5118892;27;20372;-65
2022/01/09 10:48:16;;;;;;;4.95;1.52;;;6.70;99.90;;;;;;5132971;27;20023;-66
2022/01/09 10:50:43;;;;;;;7.70;2.60;;;6.80;99.90;;;;;;5118651;27;20038;-66
2022/01/09 10:53:24;;;;;;;10.85;2.00;;;7.10;99.90;;;;;;5111970;27;20085;-66
2022/01/09 10:55:59;;;;;;;7.10;1.48;;;6.90;99.90;;;;;;5115352;27;20069;-69
2022/01/09 10:58:25;;;;;;;3.72;1.10;;;6.70;99.90;;;;;;5112166;28;20041;-68
2022/01/09 11:01:13;;;;;;;4.05;1.33;;;6.70;99.90;;;;;;5117527;27;20031;-65
2022/01/09 11:03:42;;;;;;;8.48;1.90;;;6.70;99.90;;;;;;5132102;27;20023;-66
2022/01/09 11:06:09;;;;;;;6.65;2.55;;;6.70;99.90;;;;;;5132099;27;20027;-66
2022/01/09 11:08:36;;;;;;;5.88;1.30;;;6.90;99.90;;;;;;5125010;27;20039;-68
2022/01/09 11:11:09;;;;;;;7.57;1.65;;;6.90;99.90;;;;;;5120475;27;20027;-67
2022/01/09 11:13:40;;;;;;;6.13;1.15;;;7.00;99.90;;;;;;5127625;27;20027;-65
2022/01/09 11:18:52;;;;;;;5.00;1.00;;;7.40;99.90;;;;;;5118931;27;20345;-66
2022/01/09 11:21:17;;;;;;;7.40;1.25;;;7.40;99.90;;;;;;5119446;27;20035;-66
2022/01/09 11:24:13;;;;;;;4.20;1.45;;;7.50;99.90;;;;;;5112924;28;20365;-67
2022/01/09 11:26:58;;;;;;;5.85;1.02;;;7.50;99.90;;;;;;5117544;27;20028;-67
2022/01/09 11:29:35;;;;;;;4.22;1.40;;;7.40;99.90;;;;;;5113994;28;20097;-64
2022/01/09 11:32:45;;;;;;;3.85;1.35;;;7.50;99.90;;;;;;5126000;28;20110;-72
2022/01/09 11:35:29;;;;;;;5.57;1.50;;;7.70;99.90;;;;;;5126250;28;20443;-64
2022/01/09 11:38:20;;;;;;;4.55;1.25;;;7.70;99.90;;;;;;5112907;28;20381;-68
2022/01/09 11:40:46;;;;;;;6.57;1.50;;;7.70;99.90;;;;;;5101419;28;20495;-64
2022/01/09 11:43:17;;;;;;;2.28;1.08;;;7.70;99.90;;;;;;5111231;28;20031;-64
2022/01/09 11:45:57;;;;;;;3.13;1.05;;;7.90;99.90;;;;;;5110623;28;20077;-73
2022/01/09 11:48:51;;;;;;;3.70;1.45;;;7.80;99.90;;;;;;5112214;28;20043;-66
2022/01/09 11:51:37;;;;;;;4.20;1.23;;;7.40;99.90;;;;;;5111715;28;20026;-65
2022/01/09 11:54:15;;;;;;;4.65;1.30;;;7.40;99.90;;;;;;5133045;27;20082;-65
2022/01/09 11:56:56;;;;;;;5.68;0.98;;;7.30;99.90;;;;;;5110952;28;20027;-66
2022/01/09 11:59:30;;;;;;;4.90;1.75;;;7.50;99.90;;;;;;5113930;28;20023;-66
2022/01/09 12:02:16;;;;;;;6.57;1.17;;;7.60;99.90;;;;;;5122941;28;20457;-70
2022/01/09 12:04:45;;;;;;;4.93;1.08;;;7.60;99.90;;;;;;5132987;28;20062;-65
2022/01/09 12:07:18;;;;;;;6.05;1.60;;;7.40;99.90;;;;;;5130231;28;20051;-67
2022/01/09 12:09:50;;;;;;;2.83;1.13;;;7.40;99.90;;;;;;5131912;27;20035;-65
2022/01/09 12:12:21;;;;;;;3.97;1.45;;;7.40;99.90;;;;;;5128665;28;20452;-67
2022/01/09 12:17:21;;;;;;;8.90;2.42;;;7.40;99.90;;;;;;5127368;28;20088;-67
2022/01/09 12:20:13;;;;;;;5.07;1.17;;;7.40;99.90;;;;;;5118685;28;20032;-68
2022/01/09 12:22:50;;;;;;;4.25;1.38;;;7.30;99.90;;;;;;5129213;27;20393;-67
2022/01/09 12:25:25;;;;;;;3.72;1.42;;;7.20;99.90;;;;;;5112439;28;20745;-65
2022/01/09 12:27:54;;;;;;;6.07;1.15;;;7.20;99.90;;;;;;5113554;28;20034;-68
2022/01/09 12:30:41;;;;;;;7.05;1.42;;;7.10;99.90;;;;;;5120107;28;20037;-66
2022/01/09 12:33:25;;;;;;;4.63;1.10;;;7.30;99.90;;;;;;5109795;28;20047;-65
2022/01/09 12:36:06;;;;;;;5.22;1.13;;;7.40;99.90;;;;;;5112403;28;20024;-65
2022/01/09 12:38:41;;;;;;;5.28;0.93;;;7.30;99.90;;;;;;5116194;28;20024;-65
2022/01/09 12:41:11;;;;;;;4.38;1.92;;;7.20;99.90;;;;;;5115004;28;20024;-67
2022/01/09 12:43:38;;;;;;;4.85;0.98;;;7.20;99.90;;;;;;5122126;27;20069;-69
2022/01/09 12:46:12;;;;;;;3.17;1.48;;;7.10;99.90;;;;;;5120135;27;20080;-65
2022/01/09 12:48:40;;;;;;;4.93;1.63;;;6.90;99.90;;;;;;5116909;27;20054;-66
2022/01/09 12:51:08;;;;;;;5.15;1.10;;;7.00;99.90;;;;;;5114687;28;20058;-66
2022/01/09 12:53:39;;;;;;;3.17;0.93;;;7.10;99.90;;;;;;5127539;27;20182;-66
2022/01/09 12:56:07;;;;;;;7.70;0.85;;;7.10;99.90;;;;;;5122099;27;20032;-68
2022/01/09 12:58:43;;;;;;;3.42;1.02;;;7.20;99.90;;;;;;5114026;28;20028;-65
2022/01/09 13:01:21;;;;;;;5.82;1.40;;;7.30;99.90;;;;;;5127434;27;20024;-67
2022/01/09 13:03:51;;;;;;;6.05;1.48;;;7.30;99.90;;;;;;5124042;27;20103;-68
2022/01/09 13:06:25;;;;;;;5.80;1.25;;;7.30;99.90;;;;;;5129184;27;20028;-67
2022/01/09 13:08:53;;;;;;;4.75;1.02;;;7.20;99.90;;;;;;5122792;27;20039;-69
2022/01/09 13:11:23;;;;;;;4.75;1.25;;;7.10;99.90;;;;;;5121533;27;20027;-66